Hackberry, Louisiana
Current Conditions -  °F | °C
As of 4:15 PM on Saturday 20 Dec 2014 (Local Time) from KUXL Reporting Station
Clear Clear  
Wind Chill: 59°   Ceiling: Unl
Heat Index: 59°   Visibility: 10mi
Dew Point: 47°   Wind: 8mph
Humidity: 64%   Direction: 10°N
Pressure: 30.13"   Gusts: NA
Location:  30°N, 93.34°W
Report Text: KUXL 202215Z AUTO 01007KT 10SM CLR 15/08 A3013 RMK AO2 T01520084
Loading
Personal Weather Stations






























Interactive Weather Map New forecast layout! Learn more

10-Day Weather Forecast

Advertisements
Track Severe Weather on mobile